Time;durP1;ratioP1;P1;durP2;ratioP2;P2;SDS_P1;SDS_P2;PMS_P1;PMS_P2;Temp;Humidity;BMP_temperature;BMP_pressure;BME280_temperature;BME280_humidity;BME280_pressure;Samples;Min_cycle;Max_cycle;Signal;HPM_P1;HPM_P2
2021/01/25 00:02:12;;;;;;;2.72;2.53;;;17.70;52.20;;;;;;5085289;28;20260;-59
2021/01/25 00:04:39;;;;;;;2.47;2.28;;;17.70;52.20;;;;;;5085297;28;20173;-52
2021/01/25 00:07:04;;;;;;;3.00;2.70;;;17.70;52.20;;;;;;5085064;28;20220;-58
2021/01/25 00:09:31;;;;;;;2.65;2.40;;;17.60;52.20;;;;;;5085604;28;20631;-56
2021/01/25 00:11:56;;;;;;;3.40;2.70;;;17.50;52.20;;;;;;5085049;28;21009;-56
2021/01/25 00:14:22;;;;;;;2.63;2.38;;;17.60;52.10;;;;;;5084838;28;20170;-59
2021/01/25 00:16:47;;;;;;;2.80;2.60;;;17.60;52.20;;;;;;5085113;28;20264;-55
2021/01/25 00:19:13;;;;;;;2.20;1.98;;;17.60;52.20;;;;;;5085092;28;20209;-55
2021/01/25 00:21:39;;;;;;;2.45;2.20;;;17.60;52.20;;;;;;5084834;28;20577;-59
2021/01/25 00:24:05;;;;;;;2.53;2.33;;;17.50;52.10;;;;;;5084984;28;20231;-57
2021/01/25 00:26:30;;;;;;;2.30;2.00;;;17.50;52.10;;;;;;5084932;28;20207;-56
2021/01/25 00:28:56;;;;;;;2.20;2.00;;;17.50;52.10;;;;;;5084811;28;20173;-53
2021/01/25 00:31:21;;;;;;;3.55;2.25;;;17.50;52.20;;;;;;5084973;28;20202;-52
2021/01/25 00:33:47;;;;;;;3.45;2.40;;;17.50;52.10;;;;;;5084631;28;20212;-58
2021/01/25 00:36:12;;;;;;;2.60;2.40;;;17.50;52.10;;;;;;5084771;28;20608;-59
2021/01/25 00:38:38;;;;;;;2.55;2.10;;;17.40;52.10;;;;;;5084462;28;20184;-61
2021/01/25 00:41:04;;;;;;;2.80;2.30;;;17.40;52.10;;;;;;5084854;28;20174;-57
2021/01/25 00:43:29;;;;;;;2.28;2.08;;;17.50;52.10;;;;;;5084317;28;20184;-60
2021/01/25 00:45:55;;;;;;;2.50;2.30;;;17.40;52.10;;;;;;5084592;28;20177;-60
2021/01/25 00:48:20;;;;;;;2.40;2.20;;;17.50;52.20;;;;;;5084938;28;20523;-56
2021/01/25 00:50:46;;;;;;;2.28;2.08;;;17.40;52.10;;;;;;5084927;28;20169;-58
2021/01/25 00:53:11;;;;;;;3.22;2.13;;;17.40;52.10;;;;;;5084825;28;20238;-57
2021/01/25 00:55:37;;;;;;;2.60;2.40;;;17.40;52.10;;;;;;5084336;28;20169;-57
2021/01/25 00:58:02;;;;;;;2.53;2.00;;;17.40;52.10;;;;;;5084687;28;20185;-56
2021/01/25 01:00:28;;;;;;;2.30;2.10;;;17.30;52.10;;;;;;5084483;28;20178;-58
2021/01/25 01:02:53;;;;;;;2.33;2.15;;;17.40;52.20;;;;;;5084157;28;20174;-59
2021/01/25 01:05:20;;;;;;;2.33;2.08;;;17.40;52.10;;;;;;5084303;28;20257;-58
2021/01/25 01:07:45;;;;;;;2.67;2.47;;;17.40;52.10;;;;;;5084145;28;20177;-60
2021/01/25 01:10:11;;;;;;;2.50;2.13;;;17.30;52.10;;;;;;5084621;28;20181;-60
2021/01/25 01:12:37;;;;;;;2.30;2.10;;;17.30;52.10;;;;;;5084549;28;20245;-58
2021/01/25 01:15:10;;;;;;;2.47;2.28;;;17.30;52.20;;;;;;5084662;28;20179;-57
2021/01/25 01:17:36;;;;;;;2.38;2.17;;;17.20;52.00;;;;;;5084248;28;20685;-58
2021/01/25 01:20:03;;;;;;;2.13;2.03;;;17.30;52.10;;;;;;5084182;28;20173;-60
2021/01/25 01:22:28;;;;;;;2.35;2.15;;;17.20;52.10;;;;;;5066318;28;20223;-60
2021/01/25 01:24:54;;;;;;;2.42;2.20;;;17.20;52.00;;;;;;5084013;28;20177;-60
2021/01/25 01:27:19;;;;;;;3.35;2.20;;;17.20;52.00;;;;;;5084351;28;20258;-56
2021/01/25 01:29:45;;;;;;;2.10;2.00;;;17.20;52.00;;;;;;5084466;28;20228;-60
2021/01/25 01:32:10;;;;;;;2.42;2.22;;;17.20;52.00;;;;;;5084285;28;20208;-57
2021/01/25 01:34:36;;;;;;;2.83;2.45;;;17.20;52.00;;;;;;5084041;28;20563;-57
2021/01/25 01:37:02;;;;;;;2.70;2.33;;;17.20;52.00;;;;;;5084037;28;20177;-57
2021/01/25 01:39:27;;;;;;;3.13;2.30;;;17.20;52.00;;;;;;5084327;28;20185;-59
2021/01/25 01:41:53;;;;;;;2.15;2.00;;;17.20;52.00;;;;;;5084349;28;20181;-58
2021/01/25 01:44:18;;;;;;;2.83;2.47;;;17.10;52.00;;;;;;5084004;28;20235;-58
2021/01/25 01:46:44;;;;;;;2.10;2.00;;;17.10;52.00;;;;;;5083833;28;20182;-54
2021/01/25 01:49:11;;;;;;;2.60;2.40;;;17.10;52.00;;;;;;5084004;28;20184;-58
2021/01/25 01:51:39;;;;;;;2.78;2.00;;;17.10;52.00;;;;;;5065667;28;20251;-54
2021/01/25 01:54:06;;;;;;;2.45;2.25;;;17.10;52.00;;;;;;5066278;28;20413;-59
2021/01/25 01:56:35;;;;;;;2.50;2.30;;;17.10;52.00;;;;;;5083797;28;20920;-58
2021/01/25 01:59:01;;;;;;;2.50;2.30;;;17.10;52.00;;;;;;5066501;28;20252;-58
2021/01/25 02:01:27;;;;;;;2.50;2.30;;;17.00;51.90;;;;;;5083897;28;20260;-58
2021/01/25 02:03:52;;;;;;;2.53;2.33;;;17.10;52.00;;;;;;5084118;28;20192;-59
2021/01/25 02:06:18;;;;;;;2.55;2.35;;;17.00;52.00;;;;;;5083755;28;20185;-59
2021/01/25 02:08:43;;;;;;;3.92;2.60;;;17.00;52.00;;;;;;5066037;28;20182;-59
2021/01/25 02:11:09;;;;;;;2.13;1.92;;;17.00;52.00;;;;;;5083820;28;20185;-58
2021/01/25 02:13:34;;;;;;;2.67;2.47;;;17.10;52.00;;;;;;5086110;28;20454;-58
2021/01/25 02:16:01;;;;;;;2.42;2.22;;;17.00;52.00;;;;;;5069325;28;20181;-57
2021/01/25 02:18:31;;;;;;;2.30;2.10;;;17.00;52.00;;;;;;5069160;28;20225;-54
2021/01/25 02:20:56;;;;;;;2.33;2.15;;;17.00;52.00;;;;;;5087619;28;20188;-59
2021/01/25 02:23:33;;;;;;;2.38;2.17;;;17.00;52.00;;;;;;5069563;28;20972;-58
2021/01/25 02:26:15;;;;;;;3.28;2.22;;;17.00;52.00;;;;;;5068700;28;20181;-58
2021/01/25 02:28:40;;;;;;;2.28;2.03;;;17.00;51.90;;;;;;5070422;28;20174;-55
2021/01/25 02:31:08;;;;;;;2.50;2.30;;;17.00;51.90;;;;;;5069260;28;20643;-58
2021/01/25 02:33:34;;;;;;;3.22;2.50;;;16.90;51.90;;;;;;5086892;28;20209;-56
2021/01/25 02:36:00;;;;;;;2.70;2.50;;;16.90;51.90;;;;;;5069122;28;20239;-53
2021/01/25 02:38:25;;;;;;;2.55;2.35;;;16.90;52.00;;;;;;5086990;28;20177;-58
2021/01/25 02:40:51;;;;;;;2.25;2.15;;;16.90;52.00;;;;;;5068733;28;20896;-56
2021/01/25 02:43:16;;;;;;;2.60;2.40;;;16.90;52.00;;;;;;5068795;28;21060;-59
2021/01/25 02:45:42;;;;;;;2.45;2.30;;;16.90;52.00;;;;;;5068864;28;20587;-58
2021/01/25 02:48:08;;;;;;;3.13;2.40;;;16.90;52.00;;;;;;5068779;28;20207;-59
2021/01/25 02:50:34;;;;;;;2.10;1.95;;;16.90;51.90;;;;;;5086708;28;20214;-59
2021/01/25 02:52:59;;;;;;;2.20;2.10;;;16.90;52.00;;;;;;5086385;28;20205;-58
2021/01/25 02:55:26;;;;;;;2.17;1.98;;;16.90;52.00;;;;;;5086854;28;20173;-56
2021/01/25 02:57:52;;;;;;;2.42;2.22;;;16.90;52.00;;;;;;5086677;28;20185;-52
2021/01/25 03:00:18;;;;;;;2.50;2.22;;;16.80;52.00;;;;;;5068545;28;20192;-59
2021/01/25 03:02:43;;;;;;;2.90;2.38;;;16.80;52.00;;;;;;5086382;28;20189;-56
2021/01/25 03:05:10;;;;;;;2.65;2.38;;;16.80;52.00;;;;;;5068410;28;20182;-58
2021/01/25 03:07:35;;;;;;;2.95;2.25;;;16.80;52.00;;;;;;5068353;28;20192;-60
2021/01/25 03:10:02;;;;;;;2.47;2.28;;;16.80;52.00;;;;;;5068341;28;20170;-54
2021/01/25 03:12:28;;;;;;;2.53;2.33;;;16.80;52.00;;;;;;5086160;28;20681;-58
2021/01/25 03:14:54;;;;;;;2.50;2.30;;;16.80;52.00;;;;;;5086275;28;20173;-57
2021/01/25 03:17:19;;;;;;;2.53;2.30;;;16.80;52.00;;;;;;5068306;28;20178;-56
2021/01/25 03:19:45;;;;;;;2.88;2.63;;;16.70;51.90;;;;;;5086152;28;20178;-60
2021/01/25 03:22:10;;;;;;;2.75;2.50;;;16.80;52.00;;;;;;5068164;28;20169;-59
2021/01/25 03:24:36;;;;;;;2.75;2.55;;;16.80;52.00;;;;;;5086151;28;20624;-59
2021/01/25 03:27:01;;;;;;;2.42;2.20;;;16.70;52.00;;;;;;5085997;28;20539;-53
2021/01/25 03:29:27;;;;;;;2.38;2.17;;;16.70;52.00;;;;;;5086006;28;20223;-56
2021/01/25 03:31:52;;;;;;;2.35;2.10;;;16.70;52.00;;;;;;5085927;28;20170;-54
2021/01/25 03:34:18;;;;;;;2.38;2.17;;;16.70;52.00;;;;;;5085667;28;20174;-59
2021/01/25 03:36:44;;;;;;;2.53;2.33;;;16.70;52.00;;;;;;5085703;28;20215;-61
2021/01/25 03:39:09;;;;;;;2.30;2.10;;;16.70;52.00;;;;;;5086077;28;20538;-60
2021/01/25 03:41:35;;;;;;;2.45;2.25;;;16.60;52.00;;;;;;5086084;28;20314;-58
2021/01/25 03:44:00;;;;;;;2.60;2.42;;;16.70;52.00;;;;;;5085763;28;20261;-55
2021/01/25 03:46:26;;;;;;;2.45;2.25;;;16.70;52.00;;;;;;5085891;28;20619;-60
2021/01/25 03:48:52;;;;;;;2.15;1.90;;;16.60;52.00;;;;;;5086044;28;20654;-58
2021/01/25 03:51:19;;;;;;;2.63;2.42;;;16.60;52.00;;;;;;5067530;28;20550;-58
2021/01/25 03:53:45;;;;;;;2.85;2.60;;;16.60;52.00;;;;;;5085221;28;20693;-60
2021/01/25 03:56:11;;;;;;;2.55;2.35;;;16.60;52.00;;;;;;5085734;28;20178;-57
2021/01/25 03:58:36;;;;;;;2.17;1.98;;;16.60;52.10;;;;;;5085769;28;20219;-59
2021/01/25 04:01:02;;;;;;;2.60;2.40;;;16.60;52.00;;;;;;5085949;28;20276;-59
2021/01/25 04:03:28;;;;;;;2.97;2.67;;;16.60;52.00;;;;;;5085353;28;20635;-56
2021/01/25 04:05:53;;;;;;;2.60;2.40;;;16.60;52.00;;;;;;5085482;28;20185;-57
2021/01/25 04:08:19;;;;;;;2.85;2.65;;;16.60;52.00;;;;;;5085872;28;20189;-59
2021/01/25 04:10:44;;;;;;;2.42;2.22;;;16.60;52.00;;;;;;5085637;28;20521;-60
2021/01/25 04:13:10;;;;;;;2.45;2.33;;;16.60;52.10;;;;;;5084850;28;20213;-60
2021/01/25 04:15:36;;;;;;;2.38;2.17;;;16.50;52.10;;;;;;5085413;28;20170;-59
2021/01/25 04:18:01;;;;;;;3.20;2.95;;;16.50;52.10;;;;;;5085141;28;20995;-56
2021/01/25 04:20:27;;;;;;;2.60;2.40;;;16.50;52.00;;;;;;5085095;28;20178;-57
2021/01/25 04:22:52;;;;;;;2.67;2.10;;;16.50;52.00;;;;;;5085168;28;20553;-59
2021/01/25 04:25:18;;;;;;;2.92;2.63;;;16.50;52.10;;;;;;5084746;28;20264;-56
2021/01/25 04:27:44;;;;;;;2.60;2.20;;;16.50;52.00;;;;;;5084964;28;20174;-58
2021/01/25 04:30:10;;;;;;;2.75;2.55;;;16.50;52.10;;;;;;5085055;28;20312;-58
2021/01/25 04:32:37;;;;;;;2.58;2.38;;;16.40;52.00;;;;;;5084940;28;20205;-58
2021/01/25 04:35:05;;;;;;;2.67;2.47;;;16.50;52.10;;;;;;5084316;28;20197;-56
2021/01/25 04:37:31;;;;;;;2.70;2.50;;;16.50;52.10;;;;;;5084837;28;20181;-58
2021/01/25 04:39:56;;;;;;;2.92;2.63;;;16.40;52.00;;;;;;5084851;28;20604;-57
2021/01/25 04:42:22;;;;;;;2.13;2.03;;;16.40;52.00;;;;;;5084453;28;20401;-58
2021/01/25 04:44:47;;;;;;;2.30;2.20;;;16.40;52.00;;;;;;5066660;28;20243;-59
2021/01/25 04:47:13;;;;;;;2.45;2.25;;;16.40;52.00;;;;;;5066563;28;20261;-56
2021/01/25 04:49:38;;;;;;;2.47;2.28;;;16.40;52.00;;;;;;5066327;28;20188;-57
2021/01/25 04:52:04;;;;;;;2.40;2.20;;;16.40;52.00;;;;;;5066449;28;21095;-54
2021/01/25 04:54:30;;;;;;;2.25;2.05;;;16.40;52.00;;;;;;5066793;28;20236;-57
2021/01/25 04:56:55;;;;;;;2.47;2.28;;;16.40;52.00;;;;;;5066245;28;20186;-59
2021/01/25 04:59:21;;;;;;;2.47;2.28;;;16.40;52.00;;;;;;5066385;28;20169;-57
2021/01/25 05:01:46;;;;;;;2.65;2.45;;;16.40;52.00;;;;;;5066439;28;20180;-55
2021/01/25 05:04:12;;;;;;;2.53;2.33;;;16.40;52.10;;;;;;5084371;28;20265;-59
2021/01/25 05:06:38;;;;;;;2.15;2.05;;;16.40;52.10;;;;;;5084256;28;20169;-56
2021/01/25 05:09:04;;;;;;;2.85;2.63;;;16.30;52.10;;;;;;5066239;28;20577;-58
2021/01/25 05:11:29;;;;;;;2.50;2.30;;;16.30;52.10;;;;;;5084106;28;20173;-56
2021/01/25 05:14:02;;;;;;;2.28;2.15;;;16.30;52.00;;;;;;5084046;28;20205;-59
2021/01/25 05:16:29;;;;;;;2.38;2.20;;;16.30;52.00;;;;;;5084264;28;20180;-60
2021/01/25 05:18:56;;;;;;;2.55;2.35;;;16.30;52.00;;;;;;5084193;28;20855;-59
2021/01/25 05:21:51;;;;;;;2.58;2.38;;;16.30;52.00;;;;;;5083712;28;20170;-59
2021/01/25 05:24:17;;;;;;;2.35;2.10;;;16.30;52.20;;;;;;5083749;28;20228;-59
2021/01/25 05:26:57;;;;;;;2.70;2.50;;;16.30;52.10;;;;;;5084192;28;21074;-58
2021/01/25 05:29:26;;;;;;;2.05;1.95;;;16.20;52.10;;;;;;5084309;28;20565;-56
2021/01/25 05:31:53;;;;;;;2.22;2.13;;;16.20;52.00;;;;;;5084013;28;20166;-59
2021/01/25 05:34:19;;;;;;;2.45;2.25;;;16.20;52.00;;;;;;5084323;28;20184;-59
2021/01/25 05:36:44;;;;;;;2.50;2.30;;;16.20;52.10;;;;;;5084215;28;20177;-58
2021/01/25 05:39:13;;;;;;;2.72;2.50;;;16.20;52.10;;;;;;5083826;28;20182;-60
2021/01/25 05:41:39;;;;;;;2.55;2.35;;;16.20;52.10;;;;;;5084293;28;20212;-61
2021/01/25 05:44:13;;;;;;;2.58;2.38;;;16.20;52.10;;;;;;5066308;28;20205;-56
2021/01/25 05:46:39;;;;;;;2.38;2.22;;;16.20;52.10;;;;;;5083724;28;20184;-60
2021/01/25 05:49:04;;;;;;;2.47;2.28;;;16.20;52.10;;;;;;5087294;28;20174;-57
2021/01/25 05:51:31;;;;;;;2.10;2.00;;;16.20;52.10;;;;;;5088315;28;20174;-58
2021/01/25 05:53:58;;;;;;;2.63;2.38;;;16.10;52.10;;;;;;5087591;28;20262;-57
2021/01/25 05:56:24;;;;;;;2.28;2.08;;;16.10;52.10;;;;;;5069309;28;20533;-57
2021/01/25 05:58:49;;;;;;;2.40;2.20;;;16.10;52.10;;;;;;5087635;28;20170;-56
2021/01/25 06:01:15;;;;;;;2.42;2.25;;;16.10;52.10;;;;;;5087730;28;20239;-59
2021/01/25 06:03:40;;;;;;;2.30;2.08;;;16.20;52.00;;;;;;5069449;28;20711;-60
2021/01/25 06:06:11;;;;;;;2.70;2.50;;;16.20;52.00;;;;;;5069466;28;20657;-58
2021/01/25 06:08:50;;;;;;;2.78;2.53;;;16.20;52.20;;;;;;5069266;28;20536;-56
2021/01/25 06:11:30;;;;;;;2.63;2.42;;;16.30;52.20;;;;;;5087635;28;20170;-56
2021/01/25 06:14:23;;;;;;;2.47;2.28;;;16.60;52.30;;;;;;5069180;28;20256;-60
2021/01/25 06:16:49;;;;;;;2.13;1.92;;;16.80;51.90;;;;;;5087790;28;20230;-60
2021/01/25 06:19:15;;;;;;;2.10;1.90;;;17.00;52.10;;;;;;5087348;28;20170;-59
2021/01/25 06:21:41;;;;;;;1.90;1.80;;;17.20;51.20;;;;;;5069680;28;20182;-58
2021/01/25 06:24:07;;;;;;;2.13;2.03;;;17.40;50.90;;;;;;5087702;28;20549;-60
2021/01/25 06:26:33;;;;;;;1.90;1.80;;;17.60;50.70;;;;;;5087477;28;20178;-59
2021/01/25 06:29:08;;;;;;;1.92;1.73;;;17.80;50.40;;;;;;5087356;28;20174;-56
2021/01/25 06:31:40;;;;;;;2.10;1.92;;;17.90;50.00;;;;;;5087204;28;20183;-57
2021/01/25 06:34:07;;;;;;;2.58;2.38;;;18.00;49.90;;;;;;5086944;28;20217;-57
2021/01/25 06:36:33;;;;;;;2.00;1.90;;;18.10;49.80;;;;;;5086961;28;20197;-55
2021/01/25 06:38:59;;;;;;;2.10;2.00;;;18.10;49.70;;;;;;5086976;28;20216;-59
2021/01/25 06:41:25;;;;;;;2.17;2.00;;;18.20;49.60;;;;;;5069227;28;20942;-57
2021/01/25 06:43:51;;;;;;;2.17;2.00;;;18.10;49.50;;;;;;5068914;28;20683;-58
2021/01/25 06:46:20;;;;;;;1.80;1.70;;;18.20;49.50;;;;;;5068972;28;20170;-61
2021/01/25 06:48:49;;;;;;;1.88;1.77;;;18.20;49.50;;;;;;5086771;28;20178;-59
2021/01/25 06:51:16;;;;;;;1.60;1.50;;;18.20;49.50;;;;;;5086934;28;20213;-58
2021/01/25 06:53:42;;;;;;;2.17;2.03;;;18.30;49.50;;;;;;5086663;28;20346;-56
2021/01/25 06:56:07;;;;;;;1.98;1.88;;;18.30;49.50;;;;;;5086336;28;20698;-58
2021/01/25 06:58:33;;;;;;;1.98;1.85;;;18.30;49.40;;;;;;5086363;28;20214;-57
2021/01/25 07:01:06;;;;;;;2.08;1.98;;;18.30;49.50;;;;;;5068914;28;20931;-57
2021/01/25 07:03:56;;;;;;;2.30;2.10;;;18.30;49.40;;;;;;5086606;28;20264;-59
2021/01/25 07:06:41;;;;;;;1.77;1.67;;;18.30;49.50;;;;;;5086524;28;20189;-59
2021/01/25 07:09:07;;;;;;;2.10;2.00;;;18.20;49.60;;;;;;5086407;28;20182;-60
2021/01/25 07:11:33;;;;;;;2.10;2.00;;;18.10;49.70;;;;;;5086387;28;20227;-55
2021/01/25 07:13:59;;;;;;;1.98;1.88;;;18.00;50.50;;;;;;5067992;28;20241;-61
2021/01/25 07:16:24;;;;;;;1.77;1.67;;;18.00;50.00;;;;;;5086419;28;20201;-57
2021/01/25 07:18:51;;;;;;;1.90;1.80;;;17.90;50.10;;;;;;5068084;28;20181;-57
2021/01/25 07:21:18;;;;;;;1.95;1.85;;;17.80;50.20;;;;;;5086145;28;20174;-58
2021/01/25 07:23:44;;;;;;;1.80;1.70;;;17.80;50.20;;;;;;5086193;28;20240;-55
2021/01/25 07:26:13;;;;;;;1.73;1.63;;;17.80;50.30;;;;;;5068094;28;20181;-57
2021/01/25 07:28:39;;;;;;;1.75;1.65;;;17.80;50.30;;;;;;5085958;28;20170;-52
2021/01/25 07:31:05;;;;;;;1.80;1.67;;;17.80;50.30;;;;;;5085812;28;20247;-57
2021/01/25 07:33:30;;;;;;;2.28;2.05;;;17.80;50.20;;;;;;5085761;28;20227;-59
2021/01/25 07:35:58;;;;;;;2.05;1.95;;;17.80;50.20;;;;;;5086169;28;20177;-58
2021/01/25 07:38:24;;;;;;;1.63;1.52;;;17.80;50.20;;;;;;5085812;28;20185;-60
2021/01/25 07:40:50;;;;;;;1.90;1.80;;;17.90;50.20;;;;;;5085789;28;20227;-58
2021/01/25 07:43:16;;;;;;;2.35;2.15;;;17.80;50.20;;;;;;5085819;28;20174;-58
2021/01/25 07:45:42;;;;;;;2.20;1.60;;;17.80;50.20;;;;;;5085695;28;20589;-61
2021/01/25 07:48:11;;;;;;;2.10;1.80;;;17.70;50.30;;;;;;5085833;28;20174;-59
2021/01/25 07:50:37;;;;;;;1.77;1.50;;;17.60;50.40;;;;;;5085355;28;20647;-58
2021/01/25 07:53:03;;;;;;;2.10;2.00;;;17.50;50.60;;;;;;5085471;28;20213;-57
2021/01/25 07:55:29;;;;;;;2.30;2.10;;;17.50;50.70;;;;;;5085479;28;20181;-57
2021/01/25 07:58:07;;;;;;;1.90;1.80;;;17.50;50.70;;;;;;5085107;28;20178;-55
2021/01/25 08:00:33;;;;;;;2.38;2.10;;;17.50;50.80;;;;;;5085457;28;20186;-58
2021/01/25 08:03:19;;;;;;;1.60;1.50;;;17.40;50.80;;;;;;5085455;28;20544;-58
2021/01/25 08:05:44;;;;;;;2.00;1.90;;;17.50;50.80;;;;;;5085476;28;20185;-58
2021/01/25 08:08:12;;;;;;;2.35;2.20;;;17.50;50.80;;;;;;5085363;28;20174;-55
2021/01/25 08:10:37;;;;;;;1.70;1.60;;;17.60;50.70;;;;;;5084423;28;20201;-62
2021/01/25 08:13:19;;;;;;;1.88;1.77;;;17.60;50.70;;;;;;5085274;28;20245;-62
2021/01/25 08:16:18;;;;;;;2.38;2.17;;;17.60;51.20;;;;;;5085390;28;20234;-62
2021/01/25 08:18:45;;;;;;;2.50;2.30;;;17.50;50.80;;;;;;5067151;28;20174;-58
2021/01/25 08:21:23;;;;;;;2.60;2.40;;;17.50;50.80;;;;;;5085407;28;20177;-57
2021/01/25 08:23:49;;;;;;;2.63;2.42;;;17.50;51.00;;;;;;5067206;28;20631;-60
2021/01/25 08:26:21;;;;;;;3.10;2.80;;;17.50;51.10;;;;;;5066481;28;20231;-58
2021/01/25 08:28:46;;;;;;;3.00;2.80;;;17.40;51.40;;;;;;5067320;28;20265;-60
2021/01/25 08:31:16;;;;;;;4.32;2.80;;;17.40;51.30;;;;;;5066761;28;20331;-57
2021/01/25 08:33:44;;;;;;;4.32;3.22;;;17.40;51.50;;;;;;5084776;28;20210;-60
2021/01/25 08:36:11;;;;;;;4.60;3.45;;;17.40;51.60;;;;;;5084761;28;20177;-60
2021/01/25 08:38:41;;;;;;;3.22;2.92;;;17.40;51.60;;;;;;5066791;28;20217;-59
2021/01/25 08:41:33;;;;;;;2.97;2.67;;;17.40;51.60;;;;;;5067194;28;20181;-61
2021/01/25 08:44:00;;;;;;;3.00;2.80;;;17.50;51.60;;;;;;5062403;28;20975;-61
2021/01/25 08:46:35;;;;;;;3.13;2.85;;;17.50;51.60;;;;;;5084687;28;20261;-56
2021/01/25 08:49:15;;;;;;;3.60;2.90;;;17.40;51.50;;;;;;5084735;28;20270;-60
2021/01/25 08:51:41;;;;;;;3.28;2.90;;;17.50;51.60;;;;;;5066773;28;20176;-59
2021/01/25 08:54:28;;;;;;;3.80;2.90;;;17.30;51.50;;;;;;5084677;28;20208;-53
2021/01/25 08:56:54;;;;;;;4.28;3.25;;;17.40;51.50;;;;;;5067089;28;20234;-57
2021/01/25 08:59:33;;;;;;;4.38;3.10;;;17.40;51.50;;;;;;5066744;28;20174;-58
2021/01/25 09:02:10;;;;;;;3.40;3.10;;;17.40;51.50;;;;;;5084392;28;20792;-60
2021/01/25 09:04:35;;;;;;;3.08;2.83;;;17.40;51.40;;;;;;5066906;28;20169;-58
2021/01/25 09:07:01;;;;;;;3.85;2.90;;;17.50;51.50;;;;;;5084335;28;20182;-60
2021/01/25 09:09:27;;;;;;;3.30;3.00;;;17.50;51.50;;;;;;5084520;28;20173;-60
2021/01/25 09:11:52;;;;;;;4.15;2.97;;;17.60;51.40;;;;;;5084472;28;20280;-61
2021/01/25 09:14:20;;;;;;;3.25;3.00;;;17.70;51.50;;;;;;5084512;28;20592;-59
2021/01/25 09:16:46;;;;;;;3.85;3.15;;;17.80;51.50;;;;;;5084349;28;20219;-61
2021/01/25 09:19:13;;;;;;;4.78;3.20;;;17.80;51.30;;;;;;5084583;28;20578;-61
2021/01/25 09:21:39;;;;;;;4.63;3.63;;;17.80;51.30;;;;;;5083909;28;20178;-59
2021/01/25 09:24:05;;;;;;;3.50;3.15;;;17.70;51.40;;;;;;5084369;28;20208;-57
2021/01/25 09:26:30;;;;;;;3.47;3.13;;;17.80;51.30;;;;;;5084299;28;20189;-60
2021/01/25 09:28:56;;;;;;;4.70;3.50;;;17.80;51.50;;;;;;5084400;28;20176;-58
2021/01/25 09:31:24;;;;;;;3.90;3.00;;;17.80;51.30;;;;;;5083945;28;20221;-60
2021/01/25 09:33:50;;;;;;;3.50;2.97;;;17.90;51.50;;;;;;5084142;28;20217;-58
2021/01/25 09:36:15;;;;;;;3.10;2.80;;;17.90;51.50;;;;;;5066329;28;20202;-61
2021/01/25 09:38:41;;;;;;;4.70;3.17;;;17.90;51.50;;;;;;5083989;28;20280;-60
2021/01/25 09:41:06;;;;;;;4.35;3.03;;;18.00;51.50;;;;;;5084001;28;20178;-61
2021/01/25 09:43:32;;;;;;;4.10;3.10;;;18.00;51.50;;;;;;5083987;28;20265;-61
2021/01/25 09:45:57;;;;;;;3.88;2.60;;;18.00;51.50;;;;;;5084079;28;20265;-60
2021/01/25 09:48:23;;;;;;;2.78;2.47;;;18.00;51.50;;;;;;5083991;28;20236;-63
2021/01/25 09:50:50;;;;;;;3.30;3.00;;;18.00;51.60;;;;;;5083764;28;20184;-60
2021/01/25 09:53:15;;;;;;;3.30;2.97;;;18.00;51.60;;;;;;5083652;28;20411;-58
2021/01/25 09:55:41;;;;;;;2.88;2.67;;;18.00;51.90;;;;;;5084110;28;20290;-58
2021/01/25 09:58:06;;;;;;;2.72;2.53;;;17.90;51.60;;;;;;5066096;28;20173;-60
2021/01/25 10:00:32;;;;;;;5.43;3.15;;;18.00;51.90;;;;;;5083865;28;20670;-58
2021/01/25 10:02:57;;;;;;;3.45;2.80;;;18.00;51.80;;;;;;5083243;28;20313;-59
2021/01/25 10:05:23;;;;;;;3.10;2.78;;;17.90;51.80;;;;;;5082943;28;20251;-60
2021/01/25 10:07:49;;;;;;;3.00;2.50;;;17.90;51.70;;;;;;5083034;28;20615;-60
2021/01/25 10:10:15;;;;;;;2.83;2.55;;;17.90;51.90;;;;;;5083041;28;20239;-59
2021/01/25 10:12:40;;;;;;;4.65;2.75;;;17.80;52.00;;;;;;5082783;28;20287;-58
2021/01/25 10:15:14;;;;;;;2.58;2.38;;;17.80;52.00;;;;;;5082929;28;20174;-61
2021/01/25 10:17:40;;;;;;;2.72;2.13;;;17.80;52.30;;;;;;5080670;28;20235;-61
2021/01/25 10:20:06;;;;;;;2.83;2.63;;;17.70;52.30;;;;;;5082703;28;20201;-61
2021/01/25 10:22:31;;;;;;;3.55;3.10;;;17.70;52.40;;;;;;5082590;28;20189;-60
2021/01/25 10:24:57;;;;;;;3.30;2.45;;;17.60;52.50;;;;;;5082854;28;20185;-62
2021/01/25 10:27:22;;;;;;;4.32;2.80;;;17.60;52.50;;;;;;5082648;28;20201;-61
2021/01/25 10:29:48;;;;;;;2.42;2.22;;;17.60;52.50;;;;;;5082828;28;20587;-59
2021/01/25 10:32:15;;;;;;;3.17;2.30;;;17.50;52.50;;;;;;5079879;28;20691;-60
2021/01/25 10:34:41;;;;;;;3.22;2.20;;;17.60;52.50;;;;;;5085438;28;20281;-59
2021/01/25 10:37:07;;;;;;;3.40;2.60;;;17.50;52.50;;;;;;5086159;28;20187;-61
2021/01/25 10:39:32;;;;;;;3.10;2.60;;;17.50;53.00;;;;;;5086519;28;20542;-61
2021/01/25 10:41:58;;;;;;;3.03;2.50;;;17.50;52.40;;;;;;5086015;28;20178;-60
2021/01/25 10:44:23;;;;;;;2.65;2.20;;;17.50;52.30;;;;;;5085827;28;20182;-62
2021/01/25 10:46:49;;;;;;;1.85;1.75;;;17.50;52.20;;;;;;5086446;28;20181;-61
2021/01/25 10:49:15;;;;;;;2.15;1.98;;;17.50;52.30;;;;;;5086366;28;20178;-62
2021/01/25 10:51:40;;;;;;;2.92;2.33;;;17.40;52.30;;;;;;5086876;28;20253;-62
2021/01/25 10:54:06;;;;;;;2.53;2.25;;;17.40;52.20;;;;;;5086463;28;20218;-62
2021/01/25 10:56:31;;;;;;;2.50;2.20;;;17.40;52.10;;;;;;5086783;28;20257;-59
2021/01/25 10:58:57;;;;;;;2.13;2.03;;;17.40;52.20;;;;;;5086550;28;20693;-58
2021/01/25 11:01:22;;;;;;;2.05;1.85;;;17.40;52.20;;;;;;5086471;28;20174;-62
2021/01/25 11:03:48;;;;;;;2.22;2.13;;;17.40;52.20;;;;;;5086476;28;20265;-62
2021/01/25 11:06:14;;;;;;;2.50;2.30;;;17.40;52.10;;;;;;5086375;28;20170;-61
2021/01/25 11:08:40;;;;;;;2.45;2.25;;;17.40;52.00;;;;;;5068873;28;20613;-62
2021/01/25 11:11:06;;;;;;;2.78;2.58;;;17.40;52.00;;;;;;5086473;28;20256;-59
2021/01/25 11:13:31;;;;;;;2.53;2.33;;;17.40;52.80;;;;;;5086338;28;20296;-57
2021/01/25 11:15:57;;;;;;;2.22;2.08;;;17.30;52.10;;;;;;5068152;28;20281;-60
2021/01/25 11:18:23;;;;;;;2.60;2.40;;;17.30;52.00;;;;;;5086292;28;20227;-61
2021/01/25 11:20:49;;;;;;;2.50;2.30;;;17.40;51.90;;;;;;5086263;28;20219;-61
2021/01/25 11:23:15;;;;;;;2.85;2.50;;;17.40;51.80;;;;;;5085942;28;20174;-60
2021/01/25 11:25:40;;;;;;;2.60;2.40;;;17.40;51.70;;;;;;5086697;28;20671;-61
2021/01/25 11:28:06;;;;;;;2.78;2.40;;;17.30;51.60;;;;;;5086402;28;20593;-61
2021/01/25 11:30:31;;;;;;;2.75;2.50;;;17.40;51.60;;;;;;5085890;28;20193;-60
2021/01/25 11:32:57;;;;;;;2.42;2.22;;;17.40;51.60;;;;;;5085312;28;20613;-63
2021/01/25 11:35:22;;;;;;;2.08;1.90;;;17.40;52.10;;;;;;5085508;28;20243;-61
2021/01/25 11:37:49;;;;;;;3.58;2.30;;;17.40;52.10;;;;;;5086154;28;20189;-63
2021/01/25 11:40:15;;;;;;;2.92;2.20;;;17.50;52.10;;;;;;5068233;28;20178;-62
2021/01/25 11:42:40;;;;;;;2.30;1.98;;;17.50;52.00;;;;;;5085919;28;20186;-62
2021/01/25 11:45:06;;;;;;;2.50;2.08;;;17.50;52.00;;;;;;5084580;28;20189;-62
2021/01/25 11:47:31;;;;;;;2.33;2.13;;;17.60;52.00;;;;;;5085398;28;20215;-62
2021/01/25 11:49:57;;;;;;;2.05;1.83;;;17.60;52.00;;;;;;5085747;28;20216;-61
2021/01/25 11:52:23;;;;;;;3.30;2.20;;;17.60;51.90;;;;;;5085820;28;20213;-61
2021/01/25 11:54:48;;;;;;;2.00;1.80;;;17.60;51.90;;;;;;5085512;28;20173;-60
2021/01/25 11:57:14;;;;;;;3.28;2.00;;;17.70;51.80;;;;;;5085602;28;20547;-62
2021/01/25 11:59:39;;;;;;;1.90;1.80;;;17.70;51.90;;;;;;5085009;28;20239;-59
2021/01/25 12:02:05;;;;;;;2.53;1.90;;;17.70;51.90;;;;;;5085254;28;20181;-59
2021/01/25 12:04:30;;;;;;;2.78;1.85;;;17.70;52.00;;;;;;5085384;28;20182;-62
2021/01/25 12:06:56;;;;;;;2.65;2.10;;;17.70;52.30;;;;;;5085413;28;20185;-62
2021/01/25 12:09:23;;;;;;;4.10;1.92;;;17.70;52.10;;;;;;5085163;28;20170;-62
2021/01/25 12:11:48;;;;;;;3.38;2.28;;;17.70;52.10;;;;;;5067235;28;20174;-62
2021/01/25 12:14:14;;;;;;;4.68;2.22;;;17.80;52.20;;;;;;5066713;28;20278;-64
2021/01/25 12:16:40;;;;;;;2.53;2.33;;;17.80;52.30;;;;;;5085211;28;20173;-60
2021/01/25 12:19:05;;;;;;;2.13;1.92;;;17.90;52.20;;;;;;5085090;28;20624;-62
2021/01/25 12:21:31;;;;;;;2.30;1.67;;;18.00;52.30;;;;;;5085004;28;20173;-62
2021/01/25 12:23:56;;;;;;;2.53;2.00;;;18.10;52.20;;;;;;5084916;28;20237;-61
2021/01/25 12:26:22;;;;;;;2.70;2.00;;;18.30;52.10;;;;;;5084618;28;20166;-61
2021/01/25 12:28:48;;;;;;;1.95;1.70;;;18.60;51.60;;;;;;5085062;28;20273;-58
2021/01/25 12:31:13;;;;;;;3.58;1.70;;;19.00;51.00;;;;;;5066568;28;20189;-58
2021/01/25 12:33:39;;;;;;;2.70;1.67;;;19.30;50.40;;;;;;5084717;28;20205;-61
2021/01/25 12:36:05;;;;;;;2.58;1.70;;;19.60;50.00;;;;;;5084218;28;20176;-60
2021/01/25 12:38:30;;;;;;;3.40;1.92;;;19.80;49.40;;;;;;5084865;28;20207;-61
2021/01/25 12:40:56;;;;;;;3.92;1.52;;;20.00;49.10;;;;;;5084641;28;20174;-61
2021/01/25 12:43:22;;;;;;;1.77;1.67;;;20.10;48.90;;;;;;5084795;28;20170;-62
2021/01/25 12:45:47;;;;;;;1.85;1.58;;;20.30;48.70;;;;;;5084474;28;20174;-62
2021/01/25 12:48:13;;;;;;;2.05;1.50;;;20.30;48.60;;;;;;5085230;28;20627;-61